sensor_id;sensor_type;location;lat;lon;timestamp;pressure;altitude;pressure_sealevel;temperature;humidity
75855;BME280;64502;59.976;30.316;2023-05-16T00:01:13;101559.56;;;14.02;49.58
75855;BME280;64502;59.976;30.316;2023-05-16T00:03:38;101562.34;;;14.01;49.73
75855;BME280;64502;59.976;30.316;2023-05-16T00:06:04;101558.84;;;14.00;48.83
75855;BME280;64502;59.976;30.316;2023-05-16T00:08:30;101562.41;;;13.99;48.98
75855;BME280;64502;59.976;30.316;2023-05-16T00:10:55;101561.56;;;13.98;48.83
75855;BME280;64502;59.976;30.316;2023-05-16T00:13:21;101545.75;;;13.97;48.61
75855;BME280;64502;59.976;30.316;2023-05-16T00:15:50;101544.22;;;13.93;49.24
75855;BME280;64502;59.976;30.316;2023-05-16T00:18:16;101540.53;;;13.95;49.85
75855;BME280;64502;59.976;30.316;2023-05-16T00:20:43;101541.47;;;13.94;49.47
75855;BME280;64502;59.976;30.316;2023-05-16T00:23:09;101538.06;;;13.92;48.56
75855;BME280;64502;59.976;30.316;2023-05-16T00:25:35;101528.47;;;13.90;48.31
75855;BME280;64502;59.976;30.316;2023-05-16T00:28:00;101534.81;;;13.87;49.68
75855;BME280;64502;59.976;30.316;2023-05-16T00:30:26;101533.97;;;13.87;48.55
75855;BME280;64502;59.976;30.316;2023-05-16T00:32:53;101523.44;;;13.85;48.23
75855;BME280;64502;59.976;30.316;2023-05-16T00:35:19;101528.06;;;13.82;49.51
75855;BME280;64502;59.976;30.316;2023-05-16T00:37:45;101530.81;;;13.80;49.29
75855;BME280;64502;59.976;30.316;2023-05-16T00:40:10;101523.88;;;13.77;48.51
75855;BME280;64502;59.976;30.316;2023-05-16T00:42:37;101532.91;;;13.75;49.00
75855;BME280;64502;59.976;30.316;2023-05-16T00:45:04;101528.63;;;13.72;49.14
75855;BME280;64502;59.976;30.316;2023-05-16T00:47:30;101527.84;;;13.70;48.60
75855;BME280;64502;59.976;30.316;2023-05-16T00:49:56;101525.38;;;13.67;49.03
75855;BME280;64502;59.976;30.316;2023-05-16T00:52:21;101529.06;;;13.65;48.76
75855;BME280;64502;59.976;30.316;2023-05-16T00:54:47;101516.00;;;13.62;48.98
75855;BME280;64502;59.976;30.316;2023-05-16T00:57:14;101520.53;;;13.60;49.59
75855;BME280;64502;59.976;30.316;2023-05-16T00:59:40;101518.13;;;13.55;48.64
75855;BME280;64502;59.976;30.316;2023-05-16T01:02:06;101515.56;;;13.53;49.43
75855;BME280;64502;59.976;30.316;2023-05-16T01:04:32;101518.22;;;13.53;49.55
75855;BME280;64502;59.976;30.316;2023-05-16T01:06:57;101512.16;;;13.51;48.90
75855;BME280;64502;59.976;30.316;2023-05-16T01:09:23;101515.84;;;13.49;49.16
75855;BME280;64502;59.976;30.316;2023-05-16T01:12:10;101507.88;;;13.49;47.56
75855;BME280;64502;59.976;30.316;2023-05-16T01:19:55;101509.94;;;13.44;48.92
75855;BME280;64502;59.976;30.316;2023-05-16T01:28:10;101514.03;;;13.33;49.93
75855;BME280;64502;59.976;30.316;2023-05-16T01:30:39;101516.03;;;13.30;49.75
75855;BME280;64502;59.976;30.316;2023-05-16T01:33:06;101518.84;;;13.27;50.00
75855;BME280;64502;59.976;30.316;2023-05-16T01:35:32;101512.84;;;13.23;50.06
75855;BME280;64502;59.976;30.316;2023-05-16T01:38:22;101507.41;;;13.26;48.48
75855;BME280;64502;59.976;30.316;2023-05-16T01:40:58;101510.94;;;13.25;48.88
75855;BME280;64502;59.976;30.316;2023-05-16T01:43:33;101503.16;;;13.22;49.88
75855;BME280;64502;59.976;30.316;2023-05-16T01:46:03;101503.16;;;13.22;50.12
75855;BME280;64502;59.976;30.316;2023-05-16T01:48:57;101504.78;;;13.25;49.35
75855;BME280;64502;59.976;30.316;2023-05-16T01:51:28;101496.84;;;13.25;50.27
75855;BME280;64502;59.976;30.316;2023-05-16T01:53:57;101493.31;;;13.26;49.34
75855;BME280;64502;59.976;30.316;2023-05-16T01:56:24;101491.50;;;13.26;50.18
75855;BME280;64502;59.976;30.316;2023-05-16T01:58:52;101496.69;;;13.28;49.75
75855;BME280;64502;59.976;30.316;2023-05-16T02:01:18;101491.31;;;13.29;50.28
75855;BME280;64502;59.976;30.316;2023-05-16T02:03:43;101483.19;;;13.32;50.22
75855;BME280;64502;59.976;30.316;2023-05-16T02:06:09;101482.06;;;13.37;49.42
75855;BME280;64502;59.976;30.316;2023-05-16T02:08:35;101485.41;;;13.40;50.22
75855;BME280;64502;59.976;30.316;2023-05-16T02:11:00;101479.81;;;13.45;49.58
75855;BME280;64502;59.976;30.316;2023-05-16T02:13:25;101477.75;;;13.50;49.73
75855;BME280;64502;59.976;30.316;2023-05-16T02:15:51;101480.16;;;13.54;49.56
75855;BME280;64502;59.976;30.316;2023-05-16T02:18:17;101479.72;;;13.62;49.80
75855;BME280;64502;59.976;30.316;2023-05-16T02:20:43;101489.09;;;13.68;49.15
75855;BME280;64502;59.976;30.316;2023-05-16T02:23:09;101477.28;;;13.73;48.38
75855;BME280;64502;59.976;30.316;2023-05-16T02:25:34;101480.41;;;13.80;48.90
75855;BME280;64502;59.976;30.316;2023-05-16T02:28:00;101477.28;;;13.88;47.61
75855;BME280;64502;59.976;30.316;2023-05-16T02:30:25;101472.38;;;13.96;48.42
75855;BME280;64502;59.976;30.316;2023-05-16T02:32:50;101484.22;;;14.05;48.24
75855;BME280;64502;59.976;30.316;2023-05-16T02:35:17;101486.44;;;14.12;46.97
75855;BME280;64502;59.976;30.316;2023-05-16T02:37:43;101484.16;;;14.20;47.14
75855;BME280;64502;59.976;30.316;2023-05-16T02:40:09;101474.78;;;14.29;47.76
75855;BME280;64502;59.976;30.316;2023-05-16T02:42:34;101472.63;;;14.36;46.96
75855;BME280;64502;59.976;30.316;2023-05-16T02:45:00;101471.19;;;14.44;46.47
75855;BME280;64502;59.976;30.316;2023-05-16T02:47:25;101463.63;;;14.53;45.85
75855;BME280;64502;59.976;30.316;2023-05-16T02:49:51;101466.66;;;14.61;47.33
75855;BME280;64502;59.976;30.316;2023-05-16T02:52:17;101467.78;;;14.71;45.83
75855;BME280;64502;59.976;30.316;2023-05-16T02:54:43;101454.00;;;14.79;45.85
75855;BME280;64502;59.976;30.316;2023-05-16T02:57:08;101449.06;;;14.87;46.03
75855;BME280;64502;59.976;30.316;2023-05-16T02:59:34;101449.41;;;14.95;46.10
75855;BME280;64502;59.976;30.316;2023-05-16T03:02:00;101450.69;;;15.02;44.78
75855;BME280;64502;59.976;30.316;2023-05-16T03:04:26;101457.34;;;15.09;45.61
75855;BME280;64502;59.976;30.316;2023-05-16T03:06:51;101459.69;;;15.14;44.85
75855;BME280;64502;59.976;30.316;2023-05-16T03:09:17;101457.69;;;15.18;44.62
75855;BME280;64502;59.976;30.316;2023-05-16T03:11:42;101455.47;;;15.24;45.01
75855;BME280;64502;59.976;30.316;2023-05-16T03:14:08;101452.50;;;15.29;44.75
75855;BME280;64502;59.976;30.316;2023-05-16T03:16:34;101452.31;;;15.32;43.91
75855;BME280;64502;59.976;30.316;2023-05-16T03:19:00;101455.72;;;15.34;44.27
75855;BME280;64502;59.976;30.316;2023-05-16T03:21:26;101452.00;;;15.37;44.70
75855;BME280;64502;59.976;30.316;2023-05-16T03:23:52;101441.16;;;15.40;44.56
75855;BME280;64502;59.976;30.316;2023-05-16T03:26:19;101444.56;;;15.42;44.95
75855;BME280;64502;59.976;30.316;2023-05-16T03:28:45;101444.47;;;15.43;44.83
75855;BME280;64502;59.976;30.316;2023-05-16T03:31:11;101442.75;;;15.42;44.00
75855;BME280;64502;59.976;30.316;2023-05-16T03:33:36;101442.63;;;15.44;43.78
75855;BME280;64502;59.976;30.316;2023-05-16T03:36:02;101443.59;;;15.43;44.36
75855;BME280;64502;59.976;30.316;2023-05-16T03:38:27;101440.19;;;15.41;44.10
75855;BME280;64502;59.976;30.316;2023-05-16T03:40:53;101434.03;;;15.40;43.57
75855;BME280;64502;59.976;30.316;2023-05-16T03:43:18;101438.38;;;15.41;44.19
75855;BME280;64502;59.976;30.316;2023-05-16T03:45:44;101430.41;;;15.41;44.09
75855;BME280;64502;59.976;30.316;2023-05-16T03:48:09;101436.59;;;15.42;45.22
75855;BME280;64502;59.976;30.316;2023-05-16T03:50:35;101427.66;;;15.43;44.28
75855;BME280;64502;59.976;30.316;2023-05-16T03:53:01;101419.69;;;15.43;44.76
75855;BME280;64502;59.976;30.316;2023-05-16T03:55:27;101420.63;;;15.42;44.34
75855;BME280;64502;59.976;30.316;2023-05-16T03:57:53;101423.31;;;15.42;45.06
75855;BME280;64502;59.976;30.316;2023-05-16T04:00:18;101425.97;;;15.42;43.93
75855;BME280;64502;59.976;30.316;2023-05-16T04:02:44;101419.88;;;15.40;44.33
75855;BME280;64502;59.976;30.316;2023-05-16T04:05:10;101423.84;;;15.47;44.49
75855;BME280;64502;59.976;30.316;2023-05-16T04:07:37;101420.75;;;15.53;44.06
75855;BME280;64502;59.976;30.316;2023-05-16T04:10:03;101421.94;;;15.62;44.79
75855;BME280;64502;59.976;30.316;2023-05-16T04:12:29;101417.53;;;15.75;43.59
75855;BME280;64502;59.976;30.316;2023-05-16T04:14:54;101415.81;;;15.87;43.51
75855;BME280;64502;59.976;30.316;2023-05-16T04:17:20;101417.63;;;15.99;43.76
75855;BME280;64502;59.976;30.316;2023-05-16T04:19:46;101425.72;;;16.10;42.82
75855;BME280;64502;59.976;30.316;2023-05-16T04:22:12;101419.50;;;16.23;43.53
75855;BME280;64502;59.976;30.316;2023-05-16T04:24:37;101420.47;;;16.34;43.27
75855;BME280;64502;59.976;30.316;2023-05-16T04:27:04;101419.72;;;16.45;42.04
75855;BME280;64502;59.976;30.316;2023-05-16T04:29:29;101411.03;;;16.54;41.85
75855;BME280;64502;59.976;30.316;2023-05-16T04:31:56;101411.34;;;16.62;42.55
75855;BME280;64502;59.976;30.316;2023-05-16T04:34:21;101407.16;;;16.71;41.99
75855;BME280;64502;59.976;30.316;2023-05-16T04:36:54;101400.31;;;16.80;41.53
75855;BME280;64502;59.976;30.316;2023-05-16T04:39:20;101403.91;;;16.92;41.44
75855;BME280;64502;59.976;30.316;2023-05-16T04:41:46;101400.56;;;17.01;40.74
75855;BME280;64502;59.976;30.316;2023-05-16T04:44:11;101400.31;;;17.04;41.04
75855;BME280;64502;59.976;30.316;2023-05-16T04:46:37;101401.34;;;17.14;40.77
75855;BME280;64502;59.976;30.316;2023-05-16T04:49:02;101397.88;;;17.25;40.68
75855;BME280;64502;59.976;30.316;2023-05-16T04:51:27;101394.41;;;17.36;40.97
75855;BME280;64502;59.976;30.316;2023-05-16T04:53:54;101396.97;;;17.48;40.18
75855;BME280;64502;59.976;30.316;2023-05-16T04:56:19;101398.94;;;17.58;39.91
75855;BME280;64502;59.976;30.316;2023-05-16T04:58:45;101386.34;;;17.71;40.46
75855;BME280;64502;59.976;30.316;2023-05-16T05:01:11;101389.91;;;17.83;39.84
75855;BME280;64502;59.976;30.316;2023-05-16T05:03:36;101391.59;;;17.95;39.64
75855;BME280;64502;59.976;30.316;2023-05-16T05:06:02;101390.41;;;18.10;38.99
75855;BME280;64502;59.976;30.316;2023-05-16T05:08:28;101399.66;;;18.17;38.76
75855;BME280;64502;59.976;30.316;2023-05-16T05:10:55;101397.47;;;18.23;39.01
75855;BME280;64502;59.976;30.316;2023-05-16T05:13:20;101395.13;;;18.29;38.92
75855;BME280;64502;59.976;30.316;2023-05-16T05:15:46;101393.06;;;18.33;38.75
75855;BME280;64502;59.976;30.316;2023-05-16T05:18:11;101384.56;;;18.39;38.94
75855;BME280;64502;59.976;30.316;2023-05-16T05:20:37;101389.41;;;18.45;38.06
75855;BME280;64502;59.976;30.316;2023-05-16T05:23:02;101388.56;;;18.45;38.58
75855;BME280;64502;59.976;30.316;2023-05-16T05:25:28;101383.22;;;18.45;38.30
75855;BME280;64502;59.976;30.316;2023-05-16T05:27:54;101381.25;;;18.47;39.07
75855;BME280;64502;59.976;30.316;2023-05-16T05:30:19;101378.09;;;18.53;38.54
75855;BME280;64502;59.976;30.316;2023-05-16T05:32:45;101378.69;;;18.56;38.67
75855;BME280;64502;59.976;30.316;2023-05-16T05:35:10;101381.84;;;18.61;38.38
75855;BME280;64502;59.976;30.316;2023-05-16T05:37:37;101369.81;;;18.67;38.46
75855;BME280;64502;59.976;30.316;2023-05-16T05:40:03;101373.56;;;18.76;38.09
75855;BME280;64502;59.976;30.316;2023-05-16T05:42:28;101378.16;;;18.85;38.06
75855;BME280;64502;59.976;30.316;2023-05-16T05:44:54;101371.47;;;18.91;37.99
75855;BME280;64502;59.976;30.316;2023-05-16T05:47:19;101367.56;;;18.95;37.77
75855;BME280;64502;59.976;30.316;2023-05-16T05:49:45;101370.13;;;18.96;37.54
75855;BME280;64502;59.976;30.316;2023-05-16T05:52:11;101357.44;;;18.98;37.05
75855;BME280;64502;59.976;30.316;2023-05-16T05:54:36;101368.75;;;19.02;37.03
75855;BME280;64502;59.976;30.316;2023-05-16T05:57:02;101359.94;;;19.11;37.70
75855;BME280;64502;59.976;30.316;2023-05-16T05:59:27;101368.06;;;19.21;37.79
75855;BME280;64502;59.976;30.316;2023-05-16T06:01:53;101364.84;;;19.27;37.50
75855;BME280;64502;59.976;30.316;2023-05-16T06:04:19;101360.66;;;19.34;36.50
75855;BME280;64502;59.976;30.316;2023-05-16T06:06:45;101361.84;;;19.41;36.73
75855;BME280;64502;59.976;30.316;2023-05-16T06:09:10;101361.47;;;19.46;36.41
75855;BME280;64502;59.976;30.316;2023-05-16T06:11:38;101360.09;;;19.51;36.31
75855;BME280;64502;59.976;30.316;2023-05-16T06:14:03;101360.41;;;19.58;36.11
75855;BME280;64502;59.976;30.316;2023-05-16T06:16:29;101355.00;;;19.69;36.36
75855;BME280;64502;59.976;30.316;2023-05-16T06:18:55;101360.03;;;19.84;35.66
75855;BME280;64502;59.976;30.316;2023-05-16T06:21:20;101352.72;;;19.95;35.68
75855;BME280;64502;59.976;30.316;2023-05-16T06:23:46;101340.91;;;20.08;35.81
75855;BME280;64502;59.976;30.316;2023-05-16T06:26:11;101344.94;;;20.23;35.48
75855;BME280;64502;59.976;30.316;2023-05-16T06:28:37;101343.84;;;20.35;35.25
75855;BME280;64502;59.976;30.316;2023-05-16T06:31:03;101341.34;;;20.53;34.75
75855;BME280;64502;59.976;30.316;2023-05-16T06:33:28;101338.97;;;20.70;34.40
75855;BME280;64502;59.976;30.316;2023-05-16T06:35:53;101343.91;;;20.84;34.44
75855;BME280;64502;59.976;30.316;2023-05-16T06:38:19;101335.75;;;20.95;33.86
75855;BME280;64502;59.976;30.316;2023-05-16T06:40:45;101329.53;;;21.04;34.30
75855;BME280;64502;59.976;30.316;2023-05-16T06:43:10;101331.50;;;21.12;34.38
75855;BME280;64502;59.976;30.316;2023-05-16T06:45:36;101329.25;;;21.17;34.25
75855;BME280;64502;59.976;30.316;2023-05-16T06:48:02;101327.53;;;21.26;33.10
75855;BME280;64502;59.976;30.316;2023-05-16T06:50:28;101322.28;;;21.34;33.88
75855;BME280;64502;59.976;30.316;2023-05-16T06:52:53;101318.91;;;21.42;32.92
75855;BME280;64502;59.976;30.316;2023-05-16T06:55:19;101318.88;;;21.52;33.21
75855;BME280;64502;59.976;30.316;2023-05-16T06:57:44;101316.59;;;21.57;32.64
75855;BME280;64502;59.976;30.316;2023-05-16T07:00:10;101317.00;;;21.62;32.48
75855;BME280;64502;59.976;30.316;2023-05-16T07:02:36;101316.47;;;21.58;30.99
75855;BME280;64502;59.976;30.316;2023-05-16T07:05:01;101307.09;;;21.62;31.57
75855;BME280;64502;59.976;30.316;2023-05-16T07:07:27;101315.97;;;21.72;30.72
75855;BME280;64502;59.976;30.316;2023-05-16T07:09:52;101319.31;;;21.84;30.56
75855;BME280;64502;59.976;30.316;2023-05-16T07:12:18;101308.44;;;21.86;30.58
75855;BME280;64502;59.976;30.316;2023-05-16T07:14:43;101291.41;;;21.95;30.54
75855;BME280;64502;59.976;30.316;2023-05-16T07:17:09;101298.97;;;22.09;30.04
75855;BME280;64502;59.976;30.316;2023-05-16T07:19:35;101300.31;;;22.23;29.48
75855;BME280;64502;59.976;30.316;2023-05-16T07:22:00;101301.44;;;22.30;29.19
75855;BME280;64502;59.976;30.316;2023-05-16T07:24:26;101283.69;;;22.37;28.90
75855;BME280;64502;59.976;30.316;2023-05-16T07:26:51;101303.06;;;22.41;29.15
75855;BME280;64502;59.976;30.316;2023-05-16T07:29:17;101303.44;;;22.46;28.58
75855;BME280;64502;59.976;30.316;2023-05-16T07:31:42;101302.28;;;22.49;27.58
75855;BME280;64502;59.976;30.316;2023-05-16T07:34:09;101298.53;;;22.59;28.13
75855;BME280;64502;59.976;30.316;2023-05-16T07:36:35;101287.94;;;22.76;27.67
75855;BME280;64502;59.976;30.316;2023-05-16T07:39:00;101288.63;;;22.96;27.57
75855;BME280;64502;59.976;30.316;2023-05-16T07:41:26;101281.03;;;23.17;26.65
75855;BME280;64502;59.976;30.316;2023-05-16T07:43:51;101279.47;;;23.33;26.11
75855;BME280;64502;59.976;30.316;2023-05-16T07:46:17;101284.78;;;23.51;25.92
75855;BME280;64502;59.976;30.316;2023-05-16T07:48:42;101280.81;;;23.63;26.32
75855;BME280;64502;59.976;30.316;2023-05-16T07:51:07;101262.28;;;23.68;25.81
75855;BME280;64502;59.976;30.316;2023-05-16T07:53:33;101272.41;;;23.66;25.70
75855;BME280;64502;59.976;30.316;2023-05-16T07:55:58;101278.78;;;23.65;25.25
75855;BME280;64502;59.976;30.316;2023-05-16T07:58:24;101268.75;;;23.75;25.34
75855;BME280;64502;59.976;30.316;2023-05-16T08:00:49;101279.44;;;23.85;25.35
75855;BME280;64502;59.976;30.316;2023-05-16T08:03:15;101262.78;;;23.98;25.44
75855;BME280;64502;59.976;30.316;2023-05-16T08:05:40;101271.25;;;24.11;24.98
75855;BME280;64502;59.976;30.316;2023-05-16T08:08:06;101267.72;;;24.10;24.55
75855;BME280;64502;59.976;30.316;2023-05-16T08:10:32;101282.38;;;24.08;24.80
75855;BME280;64502;59.976;30.316;2023-05-16T08:12:57;101262.28;;;24.02;24.74
75855;BME280;64502;59.976;30.316;2023-05-16T08:15:23;101278.66;;;24.09;24.78
75855;BME280;64502;59.976;30.316;2023-05-16T08:17:49;101264.19;;;24.18;24.65
75855;BME280;64502;59.976;30.316;2023-05-16T08:20:15;101272.81;;;24.30;24.98
75855;BME280;64502;59.976;30.316;2023-05-16T08:22:40;101275.34;;;24.23;24.56
75855;BME280;64502;59.976;30.316;2023-05-16T08:25:06;101260.31;;;24.21;24.44
75855;BME280;64502;59.976;30.316;2023-05-16T08:27:33;101267.72;;;24.19;25.14
75855;BME280;64502;59.976;30.316;2023-05-16T08:29:58;101258.16;;;24.32;24.79
75855;BME280;64502;59.976;30.316;2023-05-16T08:32:24;101275.69;;;24.28;25.05
75855;BME280;64502;59.976;30.316;2023-05-16T08:34:49;101256.78;;;24.12;25.18
75855;BME280;64502;59.976;30.316;2023-05-16T08:37:15;101254.69;;;23.98;25.04
75855;BME280;64502;59.976;30.316;2023-05-16T08:39:40;101255.84;;;23.87;25.11
75855;BME280;64502;59.976;30.316;2023-05-16T08:42:06;101255.34;;;23.91;25.17
75855;BME280;64502;59.976;30.316;2023-05-16T08:44:33;101248.34;;;24.07;25.51
75855;BME280;64502;59.976;30.316;2023-05-16T08:47:09;101243.47;;;24.27;25.22
75855;BME280;64502;59.976;30.316;2023-05-16T08:49:38;101248.91;;;24.43;25.19
75855;BME280;64502;59.976;30.316;2023-05-16T08:52:07;101241.53;;;24.62;24.60
75855;BME280;64502;59.976;30.316;2023-05-16T08:54:33;101247.75;;;24.62;24.82
75855;BME280;64502;59.976;30.316;2023-05-16T08:57:00;101244.03;;;24.71;24.96
75855;BME280;64502;59.976;30.316;2023-05-16T08:59:26;101235.94;;;24.79;24.72
75855;BME280;64502;59.976;30.316;2023-05-16T09:01:52;101236.59;;;24.98;24.77
75855;BME280;64502;59.976;30.316;2023-05-16T09:04:18;101227.31;;;25.09;25.04
75855;BME280;64502;59.976;30.316;2023-05-16T09:06:44;101232.53;;;25.27;24.37
75855;BME280;64502;59.976;30.316;2023-05-16T09:09:10;101235.50;;;25.40;25.15
75855;BME280;64502;59.976;30.316;2023-05-16T09:11:37;101241.78;;;25.40;24.44
75855;BME280;64502;59.976;30.316;2023-05-16T09:14:03;101241.84;;;25.08;25.10
75855;BME280;64502;59.976;30.316;2023-05-16T09:16:29;101234.75;;;24.82;24.69
75855;BME280;64502;59.976;30.316;2023-05-16T09:18:57;101223.13;;;24.73;25.14
75855;BME280;64502;59.976;30.316;2023-05-16T09:21:35;101233.91;;;24.81;25.34
75855;BME280;64502;59.976;30.316;2023-05-16T09:24:02;101225.28;;;25.11;25.25
75855;BME280;64502;59.976;30.316;2023-05-16T09:26:29;101229.47;;;25.38;24.13
75855;BME280;64502;59.976;30.316;2023-05-16T09:28:56;101212.75;;;25.74;23.82
75855;BME280;64502;59.976;30.316;2023-05-16T09:31:23;101204.19;;;25.70;23.36
75855;BME280;64502;59.976;30.316;2023-05-16T09:33:51;101218.34;;;25.72;23.89
75855;BME280;64502;59.976;30.316;2023-05-16T09:36:17;101213.97;;;25.71;23.94
75855;BME280;64502;59.976;30.316;2023-05-16T09:38:43;101208.34;;;25.73;23.88
75855;BME280;64502;59.976;30.316;2023-05-16T09:41:09;101222.03;;;25.79;23.67
75855;BME280;64502;59.976;30.316;2023-05-16T09:43:37;101219.81;;;25.83;23.40
75855;BME280;64502;59.976;30.316;2023-05-16T09:46:03;101202.72;;;25.90;22.92
75855;BME280;64502;59.976;30.316;2023-05-16T09:48:28;101208.91;;;26.30;23.61
75855;BME280;64502;59.976;30.316;2023-05-16T09:50:54;101213.19;;;26.25;23.57
75855;BME280;64502;59.976;30.316;2023-05-16T09:53:31;101207.56;;;26.26;23.25
75855;BME280;64502;59.976;30.316;2023-05-16T09:56:05;101195.59;;;26.21;23.99
75855;BME280;64502;59.976;30.316;2023-05-16T09:58:32;101188.34;;;26.44;24.33
75855;BME280;64502;59.976;30.316;2023-05-16T10:00:59;101176.63;;;26.52;22.42
75855;BME280;64502;59.976;30.316;2023-05-16T10:03:26;101199.16;;;26.67;22.57
75855;BME280;64502;59.976;30.316;2023-05-16T10:05:53;101189.59;;;26.56;22.05
75855;BME280;64502;59.976;30.316;2023-05-16T10:08:24;101185.25;;;26.47;22.38
75855;BME280;64502;59.976;30.316;2023-05-16T10:10:51;101177.63;;;26.51;22.40
75855;BME280;64502;59.976;30.316;2023-05-16T10:13:27;101172.13;;;26.82;22.32
75855;BME280;64502;59.976;30.316;2023-05-16T10:15:55;101175.81;;;26.81;22.28
75855;BME280;64502;59.976;30.316;2023-05-16T10:18:21;101177.28;;;27.07;20.99
75855;BME280;64502;59.976;30.316;2023-05-16T10:20:50;101168.47;;;27.49;20.95
75855;BME280;64502;59.976;30.316;2023-05-16T10:23:18;101168.88;;;27.82;19.77
75855;BME280;64502;59.976;30.316;2023-05-16T10:25:48;101175.22;;;27.89;20.36
75855;BME280;64502;59.976;30.316;2023-05-16T10:28:14;101183.72;;;27.50;20.72
75855;BME280;64502;59.976;30.316;2023-05-16T10:30:42;101179.03;;;27.44;20.67
75855;BME280;64502;59.976;30.316;2023-05-16T10:33:15;101171.91;;;27.58;21.11
75855;BME280;64502;59.976;30.316;2023-05-16T10:35:42;101161.44;;;27.70;20.97
75855;BME280;64502;59.976;30.316;2023-05-16T10:38:10;101184.91;;;27.62;20.66
75855;BME280;64502;59.976;30.316;2023-05-16T10:40:37;101168.81;;;27.61;20.16
75855;BME280;64502;59.976;30.316;2023-05-16T10:43:05;101182.63;;;27.66;20.06
75855;BME280;64502;59.976;30.316;2023-05-16T10:45:31;101177.53;;;27.56;20.09
75855;BME280;64502;59.976;30.316;2023-05-16T10:47:57;101174.59;;;27.73;20.16
75855;BME280;64502;59.976;30.316;2023-05-16T10:50:49;101159.97;;;28.31;20.32
75855;BME280;64502;59.976;30.316;2023-05-16T10:53:28;101168.13;;;28.31;19.85
75855;BME280;64502;59.976;30.316;2023-05-16T11:11:55;101154.44;;;26.71;21.83
75855;BME280;64502;59.976;30.316;2023-05-16T11:32:25;101141.78;;;28.25;20.08
75855;BME280;64502;59.976;30.316;2023-05-16T11:34:51;101136.22;;;28.12;20.53
75855;BME280;64502;59.976;30.316;2023-05-16T11:37:18;101133.72;;;28.10;20.36
75855;BME280;64502;59.976;30.316;2023-05-16T11:39:44;101128.03;;;28.05;20.56
75855;BME280;64502;59.976;30.316;2023-05-16T11:42:10;101142.50;;;27.76;20.83
75855;BME280;64502;59.976;30.316;2023-05-16T11:44:37;101135.25;;;27.26;20.81
75855;BME280;64502;59.976;30.316;2023-05-16T11:47:04;101135.22;;;26.66;21.49
75855;BME280;64502;59.976;30.316;2023-05-16T11:49:31;101131.03;;;26.18;22.26
75855;BME280;64502;59.976;30.316;2023-05-16T11:51:56;101126.25;;;25.74;22.67
75855;BME280;64502;59.976;30.316;2023-05-16T11:54:22;101128.88;;;25.28;22.93
75855;BME280;64502;59.976;30.316;2023-05-16T11:56:51;101128.47;;;24.91;23.48
75855;BME280;64502;59.976;30.316;2023-05-16T11:59:17;101123.47;;;24.64;23.68
75855;BME280;64502;59.976;30.316;2023-05-16T12:01:43;101117.56;;;24.35;23.97
75855;BME280;64502;59.976;30.316;2023-05-16T12:04:13;101125.84;;;24.26;24.95
75855;BME280;64502;59.976;30.316;2023-05-16T12:06:40;101117.41;;;24.12;24.92
75855;BME280;64502;59.976;30.316;2023-05-16T12:09:13;101126.66;;;24.02;24.65
75855;BME280;64502;59.976;30.316;2023-05-16T12:11:43;101128.16;;;23.88;24.88
75855;BME280;64502;59.976;30.316;2023-05-16T12:14:12;101123.09;;;23.77;25.30
75855;BME280;64502;59.976;30.316;2023-05-16T12:16:38;101123.03;;;23.60;25.29
75855;BME280;64502;59.976;30.316;2023-05-16T12:19:07;101116.09;;;23.49;25.48
75855;BME280;64502;59.976;30.316;2023-05-16T12:21:34;101121.44;;;23.33;25.73
75855;BME280;64502;59.976;30.316;2023-05-16T12:24:00;101114.81;;;23.19;26.23
75855;BME280;64502;59.976;30.316;2023-05-16T12:26:30;101118.09;;;23.05;26.10
75855;BME280;64502;59.976;30.316;2023-05-16T12:28:58;101127.13;;;22.96;26.41
75855;BME280;64502;59.976;30.316;2023-05-16T12:31:27;101119.31;;;22.85;26.57
75855;BME280;64502;59.976;30.316;2023-05-16T12:33:52;101118.09;;;22.79;26.39
75855;BME280;64502;59.976;30.316;2023-05-16T12:36:21;101116.19;;;22.71;26.74
75855;BME280;64502;59.976;30.316;2023-05-16T12:38:49;101112.31;;;22.66;26.37
75855;BME280;64502;59.976;30.316;2023-05-16T12:41:21;101098.00;;;22.65;26.43
75855;BME280;64502;59.976;30.316;2023-05-16T12:43:47;101095.31;;;22.65;27.09
75855;BME280;64502;59.976;30.316;2023-05-16T12:46:15;101093.47;;;22.66;26.80
75855;BME280;64502;59.976;30.316;2023-05-16T12:48:41;101086.09;;;22.68;26.24
75855;BME280;64502;59.976;30.316;2023-05-16T12:51:12;101091.66;;;22.74;26.53
75855;BME280;64502;59.976;30.316;2023-05-16T12:53:45;101086.81;;;22.78;27.19
75855;BME280;64502;59.976;30.316;2023-05-16T12:56:12;101085.50;;;22.82;26.74
75855;BME280;64502;59.976;30.316;2023-05-16T12:58:42;101084.16;;;22.86;26.40
75855;BME280;64502;59.976;30.316;2023-05-16T13:01:08;101089.91;;;22.91;26.57
75855;BME280;64502;59.976;30.316;2023-05-16T13:03:34;101075.28;;;22.94;26.31
75855;BME280;64502;59.976;30.316;2023-05-16T13:06:00;101088.16;;;23.00;26.33
75855;BME280;64502;59.976;30.316;2023-05-16T13:08:26;101091.44;;;22.94;26.76
75855;BME280;64502;59.976;30.316;2023-05-16T13:10:52;101080.94;;;22.82;27.01
75855;BME280;64502;59.976;30.316;2023-05-16T13:13:18;101079.28;;;22.81;27.02
75855;BME280;64502;59.976;30.316;2023-05-16T13:15:44;101071.19;;;22.81;26.13
75855;BME280;64502;59.976;30.316;2023-05-16T13:18:10;101068.00;;;22.86;26.29
75855;BME280;64502;59.976;30.316;2023-05-16T13:20:35;101069.53;;;22.89;26.17
75855;BME280;64502;59.976;30.316;2023-05-16T13:23:01;101069.91;;;22.94;25.74